Latest Weather Observations for Marble Bar

IDW60801

Issued at 12:02 pm WST Sunday 1 February 2015 (issued every 30 minutes, with the page automatically refreshed every 10 minutes)

About weather observations | Map of weather stations | Latest weather observations for WA | Other Formats
Station Details ID: 004106 Name: MARBLE BAR Lat: -21.18 Lon: 119.75 Height: 182.3 m
Data from the previous 72 hours. | See also: Recent months at Marble Bar
Date/Time
WST
Temp
°C
App
Temp
°C
Dew
Point
Rel
Hum
%
Delta-T
°C
Wind Press
QNH
hPa
Press
MSL
hPa
Rain
since 9 am
mm
Dir
 
Spd
km/h
Gust
km/h
Spd
kts
Gust
kts
01/12:00pm 34.6 33.6 14.5 30 12.5 WNW 13 24 7 13 1010.7 1009.2 0.0
01/11:30am 34.8 33.6 14.1 28 12.8 NW 13 20 7 11 1011.2 1009.7 0.0
01/11:00am 34.1 33.5 14.6 31 12.1 WNW 11 22 6 12 1011.4 1009.9 0.0
01/10:30am 32.6 32.9 16.0 36 10.5 NW 9 17 5 9 1011.7 1010.2 0.0
01/10:00am 32.6 33.3 16.0 36 10.5 WNW 7 15 4 8 1012.0 1010.4 0.0
01/09:30am 31.5 32.0 17.4 43 9.0 WNW 11 20 6 11 1012.5 1010.9 0.0
01/09:00am 30.3 31.1 17.4 46 8.2 W 9 19 5 10 1012.5 1010.9 0.0
01/08:30am 28.9 30.0 18.9 54 6.5 W 11 17 6 9 1012.6 1011.0 0.0
01/08:00am 28.5 29.8 19.4 57 6.0 W 11 17 6 9 1012.5 1010.9 0.0
01/07:30am 27.5 28.3 19.8 63 5.0 W 15 22 8 12 1012.3 1010.7 0.0
01/07:00am 26.9 28.3 20.3 67 4.4 WNW 13 19 7 10 1012.0 1010.4 0.0
01/06:30am 26.1 27.9 20.4 71 3.8 W 11 15 6 8 1011.7 1010.2 0.0
01/06:00am 25.8 27.1 20.1 71 3.7 W 13 20 7 11 1011.3 1009.8 0.0
01/05:30am 25.8 26.9 20.4 72 3.6 WNW 15 22 8 12 1010.9 1009.4 0.0
01/05:00am 25.8 28.0 20.4 72 3.6 WNW 9 15 5 8 1010.6 1009.1 0.0
01/04:30am 25.9 27.4 20.5 72 3.6 WNW 13 20 7 11 1010.3 1008.7 0.0
01/04:00am 25.9 27.4 20.5 72 3.6 WNW 13 20 7 11 1010.1 1008.5 0.0
01/03:30am 26.0 28.2 20.3 71 3.7 WNW 9 15 5 8 1010.1 1008.5 0.0
01/03:00am 25.9 27.4 20.5 72 3.6 WNW 13 20 7 11 1009.8 1008.2 0.0
01/02:30am 26.1 27.4 20.2 70 3.9 WNW 13 20 7 11 1009.8 1008.2 0.0
01/02:00am 26.1 27.5 20.4 71 3.8 NW 13 19 7 10 1009.6 1008.0 0.0
01/01:30am 26.3 27.4 20.4 70 3.9 WNW 15 22 8 12 1009.6 1008.0 0.0
01/01:00am 26.5 27.7 20.6 70 3.9 NW 15 22 8 12 1009.6 1008.0 0.0
01/12:30am 26.9 28.0 20.5 68 4.2 NW 15 24 8 13 1009.6 1008.0 0.0
01/12:00am 27.2 28.7 19.8 64 4.9 NW 11 20 6 11 1009.6 1008.0 0.0
 
Date/Time
WST
Temp
°C
App
Temp
°C
Dew
Point
Rel
Hum
%
Delta-T
°C
Wind Press
QNH
hPa
Press
MSL
hPa
Rain
since 9 am
mm
Dir
 
Spd
km/h
Gust
km/h
Spd
kts
Gust
kts
31/11:30pm 27.6 28.0 18.9 59 5.6 NW 15 20 8 11 1009.7 1008.1 0.0
31/11:00pm 28.0 27.9 18.7 57 6.0 NW 17 28 9 15 1009.9 1008.3 0.0
31/10:30pm 28.5 28.6 18.3 54 6.6 NW 15 22 8 12 1009.7 1008.1 0.0
31/10:00pm 29.0 28.4 17.5 49 7.3 NW 17 24 9 13 1009.5 1007.9 0.0
31/09:30pm 29.6 29.3 17.4 47 7.8 NW 15 22 8 12 1009.0 1007.4 0.0
31/09:00pm 30.2 29.3 16.9 44 8.4 NW 17 26 9 14 1008.7 1007.1 0.0
31/08:30pm 30.7 29.3 17.0 43 8.7 NNW 20 28 11 15 1008.5 1006.9 0.0
31/08:00pm 31.3 29.6 17.2 42 9.0 NNW 22 33 12 18 1008.2 1006.6 0.0
31/07:30pm 32.0 30.3 17.1 41 9.5 NW 22 32 12 17 1007.9 1006.3 0.0
31/07:00pm 33.0 31.5 16.8 38 10.4 NNW 20 33 11 18 1007.3 1005.7 0.0
31/06:30pm 34.1 31.9 16.0 34 11.5 NNW 22 33 12 18 1006.8 1005.2 0.0
31/06:00pm 35.0 32.4 15.8 31 12.2 NNW 24 33 13 18 1006.3 1004.7 0.0
31/05:30pm 36.5 34.5 15.6 29 13.3 NNW 20 28 11 15 1005.9 1004.4 0.0
31/05:00pm 37.3 35.0 14.6 26 14.3 NNW 20 32 11 17 1005.6 1004.1 0.0
31/04:30pm 38.3 36.7 12.8 22 15.7 NNW 13 24 7 13 1005.5 1003.9 0.0
31/04:00pm 38.3 37.3 13.5 23 15.4 NNW 11 28 6 15 1005.6 1004.1 0.0
31/03:30pm 37.7 35.3 13.7 24 14.9 NNW 19 30 10 16 1005.7 1004.2 0.0
31/03:00pm 37.2 36.4 13.9 25 14.5 NW 11 24 6 13 1005.8 1004.3 0.0
31/02:30pm 38.4 36.5 14.2 23 15.2 NW 17 24 9 13 1006.3 1004.7 0.0
31/02:00pm 37.5 35.4 13.5 24 14.9 NNW 17 32 9 17 1006.8 1005.2 0.0
31/01:30pm 37.3 36.5 15.2 27 14.0 WNW 13 39 7 21 1007.2 1005.6 0.0
31/01:00pm 35.8 35.5 15.5 29 12.9 WNW 11 24 6 13 1007.7 1006.1 0.0
31/12:30pm 34.9 34.9 16.2 32 11.9 N 11 24 6 13 1008.0 1006.4 0.0
31/12:00pm 35.1 35.4 16.9 34 11.7 W 11 22 6 12 1008.3 1006.7 0.0
31/11:30am 34.5 34.2 16.4 34 11.6 WNW 13 24 7 13 1008.8 1007.2 0.0
31/11:00am 33.3 33.4 16.6 36 10.7 NW 11 22 6 12 1009.4 1007.8 0.0
31/10:30am 32.9 32.5 17.1 39 10.1 NW 15 28 8 15 1009.6 1008.0 0.0
31/10:00am 32.4 32.3 17.8 41 9.5 NW 15 28 8 15 1009.8 1008.2 0.0
31/09:30am 31.1 31.9 18.1 46 8.4 WNW 11 20 6 11 1010.2 1008.6 0.0
31/09:00am 30.8 31.2 18.2 47 8.2 WNW 13 20 7 11 1010.3 1008.7 0.0
31/08:30am 29.9 30.8 18.3 49 7.5 NW 11 19 6 10 1010.2 1008.6 0.0
31/08:00am 29.6 31.0 18.7 52 7.1 WNW 9 13 5 7 1009.9 1008.3 0.0
31/07:30am 28.1 29.4 18.5 56 6.2 NW 9 17 5 9 1009.7 1008.1 0.0
31/07:00am 27.3 28.9 19.1 61 5.3 WNW 9 13 5 7 1009.7 1008.1 0.0
31/06:30am 26.4 28.6 19.5 66 4.5 WNW 7 11 4 6 1009.4 1007.8 0.0
31/06:00am 25.8 27.5 19.4 67 4.2 NNW 9 15 5 8 1009.0 1007.4 0.0
31/05:30am 25.4 28.4 20.0 72 3.5 NW 4 6 2 3 1008.7 1007.1 0.0
31/05:00am 25.5 27.9 20.1 72 3.5 NNW 7 9 4 5 1008.6 1007.0 0.0
31/04:30am 25.8 28.1 19.9 70 3.9 NW 7 11 4 6 1008.4 1006.8 0.0
31/04:00am 26.0 27.8 19.6 68 4.2 NNW 9 13 5 7 1008.3 1006.7 0.0
31/03:30am 26.3 28.8 19.9 68 4.2 NNW 6 7 3 4 1008.5 1006.9 0.0
31/03:00am 26.4 28.7 19.5 66 4.5 W 6 7 3 4 1008.6 1007.0 0.0
31/02:30am 26.7 29.7 20.1 67 4.3 W 4 6 2 3 1008.7 1007.1 0.0
31/02:00am 26.9 30.0 20.3 67 4.4 WNW 4 6 2 3 1008.9 1007.3 0.0
31/01:30am 26.8 29.9 20.2 67 4.3 NW 4 7 2 4 1009.2 1007.6 0.0
31/01:00am 26.9 30.4 20.3 67 4.4 SSW 2 7 1 4 1009.3 1007.7 0.0
31/12:30am 26.8 29.0 20.4 68 4.2 W 9 13 5 7 1009.1 1007.5 0.0
31/12:00am 26.9 29.1 20.3 67 4.4 W 9 15 5 8 1009.2 1007.6 0.0
 
Date/Time
WST
Temp
°C
App
Temp
°C
Dew
Point
Rel
Hum
%
Delta-T
°C
Wind Press
QNH
hPa
Press
MSL
hPa
Rain
since 9 am
mm
Dir
 
Spd
km/h
Gust
km/h
Spd
kts
Gust
kts
30/11:30pm 27.0 27.5 20.1 66 4.5 WNW 17 30 9 16 1008.5 1006.9 0.0
30/11:00pm 27.3 28.5 19.9 64 4.9 NW 13 19 7 10 1008.4 1006.8 0.0
30/10:30pm 27.8 27.4 19.3 60 5.5 WNW 20 28 11 15 1008.1 1006.5 0.0
30/10:00pm 28.2 28.0 19.4 59 5.8 NW 19 30 10 16 1007.9 1006.3 0.0
30/09:30pm 28.7 28.8 19.1 56 6.3 NW 17 24 9 13 1007.1 1005.5 0.0
30/09:00pm 29.2 28.2 18.9 53 6.7 NNW 22 30 12 16 1006.8 1005.2 0.0
30/08:30pm 29.7 29.2 19.1 53 6.9 NW 20 32 11 17 1006.1 1004.6 0.0
30/08:00pm 30.2 29.0 19.3 52 7.2 NNW 24 37 13 20 1005.8 1004.3 0.0
30/07:30pm 31.0 29.1 19.4 50 7.6 NNW 28 43 15 23 1005.4 1003.8 0.0
30/07:00pm 32.2 31.5 19.5 47 8.4 NW 22 32 12 17 1005.0 1003.4 0.0
30/06:30pm 33.6 31.9 18.9 41 9.7 NW 26 39 14 21 1004.3 1002.7 0.0
30/06:00pm 35.3 32.6 18.4 37 11.1 NW 30 41 16 22 1003.5 1001.9 0.0
30/05:30pm 37.2 35.3 17.7 31 12.8 NW 24 39 13 21 1003.2 1001.6 0.0
30/05:18pm 37.5 35.7 17.0 30 13.3 NW 22 35 12 19 1003.1 1001.5 0.0
30/05:00pm 39.0 38.1 12.7 21 16.2 NNW 9 15 5 8 1003.2 1001.6 0.0
30/04:30pm 39.0 37.2 12.0 20 16.5 WNW 13 22 7 12 1003.3 1001.7 0.0
30/04:00pm 39.2 36.4 11.3 19 16.9 WNW 17 26 9 14 1003.5 1001.9 0.0
30/03:30pm 39.2 37.0 12.1 20 16.5 NW 15 30 8 16 1003.7 1002.1 0.0
30/03:00pm 38.7 37.1 13.8 22 15.6 NNW 15 28 8 15 1004.1 1002.5 0.0
30/02:30pm 39.8 39.0 14.1 22 16.2 NNW 11 24 6 13 1004.4 1002.8 0.0
30/02:00pm 39.0 38.0 14.7 23 15.4 NW 13 26 7 14 1004.9 1003.3 0.0
30/01:30pm 39.1 38.7 14.2 23 15.6 W 9 19 5 10 1005.4 1003.8 0.0
30/01:00pm 37.2 36.9 14.5 26 14.3 WSW 9 20 5 11 1005.9 1004.4 0.0
30/12:30pm 37.6 38.7 16.5 28 13.6 E 6 15 3 8 1006.5 1004.9 0.0
30/12:00pm 36.4 37.5 17.0 31 12.6 SW 7 17 4 9 1006.9 1005.3 0.0
30/11:30am 35.2 36.3 16.5 33 12.0 WNW 6 13 3 7 1007.5 1005.9 0.0
30/11:00am 35.0 35.6 17.7 36 11.3 NW 11 20 6 11 1008.1 1006.5 0.0
30/10:30am 33.8 34.7 17.5 38 10.5 WNW 9 17 5 9 1008.5 1006.9 0.0
30/10:00am 32.8 34.4 18.2 42 9.5 W 7 13 4 7 1008.7 1007.1 0.0
30/09:30am 32.1 33.5 17.9 42 9.2 NW 7 13 4 7 1008.8 1007.2 0.0
30/09:00am 31.7 33.5 18.3 45 8.7 NNW 6 9 3 5 1008.9 1007.3 0.2
30/08:30am 30.4 32.3 18.5 49 7.7 WNW 6 11 3 6 1009.1 1007.5 0.2
30/08:00am 29.6 31.6 18.7 52 7.1 W 6 11 3 6 1008.9 1007.3 0.2
30/07:30am 28.8 31.2 19.7 58 6.0 W 6 9 3 5 1008.6 1007.0 0.2
30/07:00am 27.9 30.1 19.7 61 5.4 W 7 13 4 7 1008.6 1007.0 0.2
30/06:30am 26.9 29.6 20.3 67 4.3 W 6 9 3 5 1008.2 1006.6 0.2
30/06:00am 25.8 28.8 20.1 71 3.7 WSW 4 7 2 4 1007.8 1006.2 0.2
30/05:30am 25.9 28.5 20.5 72 3.6 W 7 11 4 6 1008.0 1006.4 0.2
30/05:00am 25.8 28.6 20.8 74 3.3 W 7 13 4 7 1007.8 1006.2 0.2
30/04:30am 25.9 28.3 20.9 74 3.3 W 9 17 5 9 1007.7 1006.1 0.2
30/04:00am 26.3 28.6 20.6 71 3.8 W 9 13 5 7 1007.4 1005.8 0.2
30/03:30am 26.6 29.3 20.2 68 4.2 NNW 6 7 3 4 1006.7 1005.1 0.2
30/03:00am 27.0 28.8 17.5 56 6.0 NNE 4 7 2 4 1006.3 1004.7 0.2
30/02:30am 27.0 29.3 17.8 57 5.8 NNW 2 6 1 3 1006.1 1004.6 0.2
30/02:00am 26.8 28.2 17.8 57 5.7 N 7 9 4 5 1005.8 1004.3 0.2
30/01:30am 26.7 28.9 18.3 60 5.4 N 4 7 2 4 1006.3 1004.7 0.2
30/01:00am 27.1 29.1 17.8 56 5.9 NNW 4 6 2 3 1006.3 1004.7 0.2
30/12:30am 27.4 28.9 17.6 55 6.2 W 6 7 3 4 1006.9 1005.3 0.2
30/12:00am 28.4 29.1 17.9 53 6.7 SSW 11 15 6 8 1007.2 1005.6 0.2
 
Date/Time
WST
Temp
°C
App
Temp
°C
Dew
Point
Rel
Hum
%
Delta-T
°C
Wind Press
QNH
hPa
Press
MSL
hPa
Rain
since 9 am
mm
Dir
 
Spd
km/h
Gust
km/h
Spd
kts
Gust
kts
29/11:30pm 28.6 29.0 18.1 53 6.7 SSW 13 20 7 11 1007.4 1005.8 0.2
29/11:00pm 27.6 30.1 19.9 63 5.1 WSW 6 9 3 5 1007.7 1006.1 0.2
29/10:30pm 27.4 32.3 22.4 74 3.4 CALM 0 4 0 2 1007.7 1006.1 0.2
29/10:00pm 27.2 31.9 22.6 76 3.1 NW 2 6 1 3 1007.5 1005.9 0.2
29/09:30pm 26.8 30.9 22.2 76 3.1 N 4 6 2 3 1007.5 1005.9 0.2
29/09:00pm 26.5 28.6 21.0 72 3.7 SW 11 15 6 8 1007.7 1006.1 0.0
29/08:30pm 30.0 30.1 19.1 52 7.1 S 17 26 9 14 1008.1 1006.5 0.0
29/08:00pm 32.5 33.2 17.9 41 9.5 W 11 19 6 10 1007.0 1005.4 0.0
29/07:30pm 33.1 32.3 18.1 41 9.8 NW 19 28 10 15 1004.9 1003.3 0.0
29/07:00pm 34.1 32.4 17.3 36 10.9 NNW 22 33 12 18 1004.1 1002.5 0.0
29/06:30pm 35.5 34.6 16.8 33 12.0 NW 17 30 9 16 1004.1 1002.5 0.0
29/06:00pm 36.4 34.0 16.5 30 12.8 NW 24 33 13 18 1003.7 1002.1 0.0
29/05:30pm 38.2 36.1 15.3 25 14.6 NW 20 32 11 17 1003.0 1001.4 0.0
29/05:00pm 38.6 37.0 13.8 23 15.5 NW 15 24 8 13 1002.6 1001.0 0.0
29/04:30pm 39.4 37.0 11.5 19 16.9 NW 15 28 8 15 1002.5 1000.9 0.0
29/04:00pm 39.3 35.8 8.9 16 17.8 NW 17 28 9 15 1002.6 1001.0 0.0
29/03:30pm 40.0 37.3 10.3 17 17.7 NW 15 24 8 13 1002.8 1001.2 0.0
29/03:00pm 39.9 36.4 10.2 17 17.8 NNW 19 41 10 22 1003.2 1001.6 0.0
29/02:30pm 39.7 36.3 9.2 16 17.9 WNW 17 35 9 19 1003.8 1002.2 0.0
29/02:00pm 39.5 36.4 9.0 16 17.9 NNW 15 26 8 14 1004.2 1002.6 0.0
29/01:30pm 38.7 36.0 11.7 20 16.4 WNW 17 26 9 14 1004.6 1003.0 0.0
29/01:00pm 37.7 36.6 13.0 23 15.2 WNW 11 17 6 9 1005.0 1003.4 0.0
29/12:30pm 36.9 36.7 14.8 26 13.9 WNW 9 19 5 10 1005.5 1003.9 0.0

Other Formats:

Comma delimited format used in spreadsheet applications
http://www.bom.gov.au/fwo/IDW60801/IDW60801.95317.axf

JavaScript Object Notation format (JSON) in row-major order
http://www.bom.gov.au/fwo/IDW60801/IDW60801.95317.json